Time;durP1;ratioP1;P1;durP2;ratioP2;P2;SDS_P1;SDS_P2;PMS_P1;PMS_P2;Temp;Humidity;BMP_temperature;BMP_pressure;BME280_temperature;BME280_humidity;BME280_pressure;Samples;Min_cycle;Max_cycle;Signal;HPM_P1;HPM_P2
2021/07/04 00:00:40;;;;;;;23.92;9.00;;;;;;;13.16;78.84;98580.41;2076469;86;20995;-66
2021/07/04 00:03:42;;;;;;;20.50;7.10;;;;;;;13.14;78.84;98585.77;2072062;85;21019;-62
2021/07/04 00:06:43;;;;;;;24.27;8.83;;;;;;;13.00;78.97;98580.70;2076061;86;21028;-65
2021/07/04 00:09:43;;;;;;;25.20;10.60;;;;;;;12.92;79.45;98583.09;2076372;86;21007;-62
2021/07/04 00:12:44;;;;;;;22.75;9.48;;;;;;;12.94;79.39;98582.48;2076507;86;20987;-62
2021/07/04 00:15:44;;;;;;;22.25;9.48;;;;;;;13.01;79.11;98586.33;2076288;86;21574;-69
2021/07/04 00:18:45;;;;;;;24.10;10.20;;;;;;;12.97;79.67;98583.11;2076338;86;21486;-70
2021/07/04 00:21:45;;;;;;;22.13;9.28;;;;;;;12.96;79.31;98581.91;2076372;86;20988;-70
2021/07/04 00:24:45;;;;;;;24.60;10.00;;;;;;;12.95;79.44;98574.95;2093890;85;21021;-63
2021/07/04 00:27:46;;;;;;;23.80;10.43;;;;;;;12.90;79.25;98566.55;2094812;85;20973;-66
2021/07/04 00:30:47;;;;;;;23.57;10.53;;;;;;;12.88;79.26;98571.10;2094674;84;20992;-62
2021/07/04 00:33:47;;;;;;;24.27;10.90;;;;;;;12.87;79.25;98568.09;2094508;85;21026;-69
2021/07/04 00:36:48;;;;;;;25.23;10.85;;;;;;;12.87;79.41;98571.56;2094548;85;20993;-65
2021/07/04 00:39:48;;;;;;;24.37;10.00;;;;;;;12.90;79.54;98567.86;2094530;85;20946;-64
2021/07/04 00:42:49;;;;;;;23.60;10.23;;;;;;;12.88;79.45;98563.20;2094682;85;21539;-63
2021/07/04 00:45:49;;;;;;;24.27;9.75;;;;;;;12.82;79.48;98564.02;2094532;85;21020;-64
2021/07/04 00:48:50;;;;;;;23.10;9.25;;;;;;;12.83;79.65;98567.50;2094725;85;21012;-63
2021/07/04 00:51:50;;;;;;;22.15;9.18;;;;;;;12.82;79.61;98557.44;2094794;85;21039;-61
2021/07/04 00:54:51;;;;;;;24.02;10.63;;;;;;;12.82;79.55;98557.44;2094666;85;21012;-63
2021/07/04 00:57:51;;;;;;;25.48;10.38;;;;;;;12.79;79.21;98564.73;2094859;84;21043;-61
2021/07/04 01:00:51;;;;;;;22.67;9.93;;;;;;;12.76;79.47;98561.02;2094781;84;20957;-61
2021/07/04 01:03:52;;;;;;;23.30;10.15;;;;;;;12.73;79.55;98560.77;2094574;85;20957;-65
2021/07/04 01:06:52;;;;;;;21.60;9.13;;;;;;;12.69;79.72;98563.25;2094505;85;20953;-61
2021/07/04 01:09:53;;;;;;;23.83;8.55;;;;;;;12.66;79.88;98560.85;2094656;85;21487;-62
2021/07/04 01:12:53;;;;;;;22.32;9.43;;;;;;;12.70;79.98;98562.77;2094542;85;20984;-61
2021/07/04 01:15:54;;;;;;;22.07;9.38;;;;;;;12.75;80.26;98566.73;2094861;85;20992;-62
2021/07/04 01:18:55;;;;;;;24.73;9.47;;;;;;;12.76;80.26;98564.48;2094647;85;21544;-61
2021/07/04 01:21:56;;;;;;;22.80;9.08;;;;;;;12.79;80.15;98560.30;2094186;85;21048;-63
2021/07/04 01:24:57;;;;;;;22.05;8.70;;;;;;;12.80;80.23;98556.72;2094327;85;21040;-60
2021/07/04 01:27:57;;;;;;;21.48;8.68;;;;;;;12.78;79.98;98548.08;2094599;85;21043;-60
2021/07/04 01:30:58;;;;;;;21.93;8.50;;;;;;;12.75;79.98;98555.38;2094361;85;21619;-60
2021/07/04 01:33:58;;;;;;;20.82;8.23;;;;;;;12.75;80.25;98550.95;2094471;85;21595;-60
2021/07/04 01:36:59;;;;;;;22.55;8.90;;;;;;;12.78;80.60;98541.99;2094514;85;20989;-60
2021/07/04 01:39:59;;;;;;;26.62;9.10;;;;;;;12.86;80.72;98542.72;2094751;85;20978;-61
2021/07/04 01:43:00;;;;;;;23.60;10.10;;;;;;;12.95;80.62;98543.36;2094643;85;20977;-61
2021/07/04 01:46:01;;;;;;;24.12;10.50;;;;;;;13.05;80.54;98543.03;2094618;85;21145;-60
2021/07/04 01:49:01;;;;;;;26.48;11.50;;;;;;;13.09;80.65;98547.11;2094603;85;21540;-60
2021/07/04 01:52:02;;;;;;;27.80;10.90;;;;;;;13.16;80.68;98548.32;2094623;85;20988;-60
2021/07/04 01:55:02;;;;;;;27.22;11.33;;;;;;;13.23;80.65;98547.39;2094749;85;20981;-61
2021/07/04 01:58:03;;;;;;;27.77;11.63;;;;;;;13.32;80.51;98541.89;2094805;85;21020;-61
2021/07/04 02:01:03;;;;;;;22.02;8.33;;;;;;;13.26;80.04;98537.93;2094886;85;21040;-61
2021/07/04 02:04:04;;;;;;;21.85;8.90;;;;;;;13.16;79.76;98535.16;2094331;85;21017;-60
2021/07/04 02:07:05;;;;;;;23.85;9.48;;;;;;;13.11;79.82;98541.23;2094520;85;21520;-61
2021/07/04 02:10:05;;;;;;;24.63;9.80;;;;;;;13.06;79.82;98541.22;2094500;85;21559;-61
2021/07/04 02:13:07;;;;;;;22.10;9.63;;;;;;;13.04;80.12;98545.29;2094768;85;21009;-61
2021/07/04 02:16:07;;;;;;;25.00;9.75;;;;;;;13.09;80.14;98546.28;2094633;85;21096;-61
2021/07/04 02:19:09;;;;;;;23.47;9.33;;;;;;;13.15;80.17;98549.27;2094699;85;21097;-60
2021/07/04 02:22:09;;;;;;;24.72;9.95;;;;;;;13.23;80.25;98546.06;2094202;85;20966;-61
2021/07/04 02:25:09;;;;;;;27.25;10.63;;;;;;;13.29;80.05;98552.17;2111473;84;21351;-60
2021/07/04 02:28:10;;;;;;;29.27;10.72;;;;;;;13.30;80.23;98548.59;2113160;84;21070;-63
2021/07/04 02:31:10;;;;;;;25.05;10.40;;;;;;;13.33;80.60;98553.63;2113364;84;21052;-61
2021/07/04 02:34:11;;;;;;;22.73;9.10;;;;;;;13.40;80.66;98554.48;2113003;84;21076;-63
2021/07/04 02:37:11;;;;;;;23.47;8.90;;;;;;;13.47;80.64;98554.38;2113098;84;21032;-60
2021/07/04 02:40:12;;;;;;;23.65;8.80;;;;;;;13.57;80.52;98548.75;2113284;84;21524;-61
2021/07/04 02:43:12;;;;;;;24.12;8.80;;;;;;;13.64;80.71;98557.03;2113349;84;21036;-65
2021/07/04 02:46:13;;;;;;;22.62;9.13;;;;;;;13.66;80.63;98556.41;2113448;84;21084;-60
2021/07/04 02:49:14;;;;;;;23.83;9.13;;;;;;;13.65;80.98;98556.91;2113651;84;20992;-61
2021/07/04 02:52:15;;;;;;;25.75;9.35;;;;;;;13.66;80.78;98563.86;2113200;84;20996;-65
2021/07/04 02:55:15;;;;;;;27.82;9.13;;;;;;;13.70;80.69;98564.45;2113149;84;21613;-62
2021/07/04 02:58:15;;;;;;;23.20;8.33;;;;;;;13.74;80.94;98564.57;2113056;84;21550;-61
2021/07/04 03:01:16;;;;;;;23.83;8.58;;;;;;;13.80;80.78;98568.03;2113166;84;21028;-60
2021/07/04 03:04:16;;;;;;;24.35;9.33;;;;;;;13.87;80.65;98573.67;2113541;84;20988;-63
2021/07/04 03:07:17;;;;;;;23.70;9.25;;;;;;;13.93;80.65;98578.94;2113534;84;21092;-61
2021/07/04 03:10:18;;;;;;;23.65;8.95;;;;;;;13.89;80.88;98573.55;2112976;84;21503;-61
2021/07/04 03:13:18;;;;;;;25.70;9.08;;;;;;;13.88;80.89;98577.14;2113422;84;20989;-61
2021/07/04 03:16:19;;;;;;;25.85;10.03;;;;;;;13.89;80.94;98584.92;2113278;84;21056;-60
2021/07/04 03:19:19;;;;;;;23.42;8.85;;;;;;;13.92;80.99;98589.13;2113259;84;20953;-60
2021/07/04 03:22:19;;;;;;;24.40;9.90;;;;;;;13.92;81.02;98589.98;2113147;84;20976;-61
2021/07/04 03:25:20;;;;;;;23.90;9.73;;;;;;;13.97;80.91;98588.30;2096903;84;21583;-60
2021/07/04 03:28:21;;;;;;;22.70;9.73;;;;;;;13.95;81.16;98592.38;2094595;85;20985;-61
2021/07/04 03:31:21;;;;;;;23.67;8.68;;;;;;;13.98;81.31;98593.44;2094872;85;20977;-61
2021/07/04 03:34:22;;;;;;;23.95;10.00;;;;;;;14.02;81.21;98599.30;2094300;85;21520;-61
2021/07/04 03:37:22;;;;;;;24.82;8.88;;;;;;;14.06;81.14;98602.55;2094595;85;21035;-60
2021/07/04 03:40:23;;;;;;;24.63;9.03;;;;;;;14.06;81.10;98609.14;2094789;85;20984;-64
2021/07/04 03:43:23;;;;;;;22.93;8.63;;;;;;;14.10;80.99;98611.41;2094736;84;21052;-61
2021/07/04 03:46:24;;;;;;;21.70;8.08;;;;;;;14.08;80.85;98615.98;2094755;84;21029;-60
2021/07/04 03:49:24;;;;;;;24.82;8.58;;;;;;;14.08;80.91;98604.11;2094671;85;21012;-60
2021/07/04 03:52:25;;;;;;;25.32;8.68;;;;;;;14.07;81.08;98609.02;2094343;85;21527;-60
2021/07/04 03:55:25;;;;;;;26.82;8.80;;;;;;;14.02;81.14;98612.48;2094601;85;21000;-59
2021/07/04 03:58:26;;;;;;;21.73;8.30;;;;;;;13.99;81.37;98620.18;2094745;85;20996;-63
2021/07/04 04:01:26;;;;;;;24.70;8.10;;;;;;;14.06;81.30;98617.88;2094965;85;20994;-61
2021/07/04 04:04:26;;;;;;;23.05;7.90;;;;;;;14.17;81.28;98619.69;2094954;85;20970;-67
2021/07/04 04:07:28;;;;;;;23.25;8.03;;;;;;;14.28;81.36;98618.81;2094703;85;21029;-61
2021/07/04 04:10:29;;;;;;;21.50;7.87;;;;;;;14.35;81.29;98620.00;2094816;85;21540;-62
2021/07/04 04:13:30;;;;;;;22.85;8.80;;;;;;;14.37;81.52;98622.05;2094833;85;21055;-67
2021/07/04 04:16:31;;;;;;;26.70;8.93;;;;;;;14.38;81.30;98614.51;2094484;85;21137;-61
2021/07/04 04:19:31;;;;;;;24.32;8.30;;;;;;;14.41;81.29;98622.63;2094352;84;21073;-63
2021/07/04 04:22:31;;;;;;;21.97;7.92;;;;;;;14.50;81.18;98610.86;2094713;84;21532;-64
2021/07/04 04:25:32;;;;;;;21.27;7.90;;;;;;;14.65;80.82;98610.61;2078891;84;21016;-70
2021/07/04 04:28:32;;;;;;;24.00;8.45;;;;;;;14.78;80.71;98607.32;2076495;86;21027;-71
2021/07/04 04:31:33;;;;;;;21.95;8.03;;;;;;;14.89;80.69;98598.53;2076582;86;21019;-66
2021/07/04 04:34:33;;;;;;;25.15;7.92;;;;;;;15.01;80.85;98600.63;2076708;85;21019;-69
2021/07/04 04:37:34;;;;;;;20.97;8.33;;;;;;;15.09;80.38;98598.20;2076308;86;21000;-69
2021/07/04 04:40:34;;;;;;;23.40;8.13;;;;;;;15.19;80.40;98591.67;2076465;86;20984;-61
2021/07/04 04:43:35;;;;;;;23.25;8.20;;;;;;;15.36;80.37;98587.61;2076484;86;21443;-61
2021/07/04 04:46:35;;;;;;;21.00;8.33;;;;;;;15.45;79.89;98594.75;2076711;86;21007;-65
2021/07/04 04:49:35;;;;;;;22.15;7.22;;;;;;;15.47;80.03;98597.27;2076424;86;20952;-66
2021/07/04 04:52:36;;;;;;;22.75;8.35;;;;;;;15.55;80.21;98603.56;2076542;86;20983;-61
2021/07/04 04:55:36;;;;;;;22.42;7.80;;;;;;;15.74;80.27;98601.50;2076310;86;20988;-62
2021/07/04 04:58:37;;;;;;;22.07;7.20;;;;;;;15.83;79.36;98605.69;2076433;86;20980;-60
2021/07/04 05:01:37;;;;;;;22.55;8.28;;;;;;;15.80;79.47;98600.17;2076327;86;21531;-61
2021/07/04 05:04:38;;;;;;;20.08;7.55;;;;;;;15.77;79.57;98604.37;2076327;86;20988;-61
2021/07/04 05:07:38;;;;;;;21.90;7.12;;;;;;;15.80;79.88;98604.63;2076488;86;21024;-61
2021/07/04 05:10:39;;;;;;;20.37;7.17;;;;;;;15.80;79.28;98596.20;2076525;86;20952;-60
2021/07/04 05:13:39;;;;;;;21.52;7.80;;;;;;;15.81;79.50;98591.77;2076484;86;21000;-61
2021/07/04 05:16:40;;;;;;;24.10;8.55;;;;;;;15.89;79.50;98589.30;2076291;86;21078;-60
2021/07/04 05:19:41;;;;;;;20.48;7.58;;;;;;;16.08;79.74;98592.50;2076106;86;21514;-61
2021/07/04 05:22:41;;;;;;;21.42;7.42;;;;;;;16.18;79.26;98590.72;2076415;85;21036;-60
2021/07/04 05:25:42;;;;;;;20.55;7.92;;;;;;;16.28;79.13;98590.25;2076400;84;21027;-64
2021/07/04 05:28:42;;;;;;;21.17;8.05;;;;;;;16.42;78.62;98583.73;2076485;86;20960;-62
2021/07/04 05:31:42;;;;;;;21.40;8.10;;;;;;;16.47;78.41;98589.94;2076557;86;20967;-70
2021/07/04 05:34:43;;;;;;;20.43;8.00;;;;;;;16.51;78.74;98588.70;2076565;86;20960;-72
2021/07/04 05:37:43;;;;;;;22.13;7.58;;;;;;;16.61;78.35;98587.39;2076084;86;21004;-71
2021/07/04 05:40:44;;;;;;;24.63;7.15;;;;;;;16.66;78.86;98588.30;2076255;86;21035;-74
2021/07/04 05:43:44;;;;;;;21.05;7.58;;;;;;;16.63;78.05;98586.25;2076427;86;21546;-75
2021/07/04 05:46:45;;;;;;;19.87;6.95;;;;;;;16.70;78.47;98582.58;2076430;86;21452;-74
2021/07/04 05:49:45;;;;;;;25.65;8.25;;;;;;;16.74;77.62;98580.50;2076140;86;20988;-74
2021/07/04 05:52:46;;;;;;;22.00;7.40;;;;;;;16.79;77.59;98583.09;2076674;86;20956;-73
2021/07/04 05:55:47;;;;;;;23.02;7.42;;;;;;;16.78;77.78;98587.20;2076393;86;20983;-75
2021/07/04 05:58:47;;;;;;;21.05;7.78;;;;;;;16.82;77.11;98588.56;2076416;86;20975;-73
2021/07/04 06:01:47;;;;;;;22.55;7.47;;;;;;;16.84;76.85;98589.75;2076293;86;20980;-73
2021/07/04 06:04:48;;;;;;;22.17;8.28;;;;;;;16.90;76.91;98587.92;2076467;85;21463;-72
2021/07/04 06:07:49;;;;;;;22.75;7.78;;;;;;;16.99;76.33;98592.87;2076077;86;21055;-70
2021/07/04 06:10:51;;;;;;;20.60;7.15;;;;;;;17.06;76.25;98596.13;2076299;86;20980;-67
2021/07/04 06:13:51;;;;;;;;;;;;;;;17.16;76.54;98593.48;2074716;86;21071;-68
2021/07/04 06:16:52;;;;;;;22.00;7.00;;;;;;;17.33;75.35;98598.55;2076451;85;20134;-67
2021/07/04 06:19:52;;;;;;;22.17;7.40;;;;;;;17.33;75.35;98598.55;2076650;86;20987;-77
2021/07/04 06:22:54;;;;;;;23.57;7.50;;;;;;;17.46;75.69;98591.62;2076788;85;20996;-77
2021/07/04 06:25:55;;;;;;;20.23;7.33;;;;;;;17.51;74.26;98596.48;2090855;84;21080;-76
2021/07/04 06:28:56;;;;;;;19.60;6.95;;;;;;;17.61;75.29;98591.52;2094350;85;21488;-76
2021/07/04 06:31:56;;;;;;;21.12;6.97;;;;;;;17.66;74.34;98588.42;2094673;85;20992;-76
2021/07/04 06:34:56;;;;;;;20.17;7.25;;;;;;;17.68;74.84;98588.27;2094830;85;21052;-76
2021/07/04 06:37:57;;;;;;;22.98;7.87;;;;;;;17.76;74.22;98585.23;2094610;85;21041;-73
2021/07/04 06:40:58;;;;;;;22.75;8.15;;;;;;;17.86;74.62;98577.25;2094976;84;20997;-77
2021/07/04 06:44:00;;;;;;;22.82;9.15;;;;;;;18.06;73.41;98586.46;2094255;85;21021;-65
2021/07/04 06:47:01;;;;;;;21.10;8.30;;;;;;;18.00;72.91;98587.88;2094757;85;21088;-61
2021/07/04 06:50:03;;;;;;;24.27;8.85;;;;;;;18.10;72.99;98587.37;2094705;84;21077;-64
2021/07/04 06:53:04;;;;;;;21.48;8.13;;;;;;;18.33;72.16;98583.81;2094777;85;21515;-65
2021/07/04 06:56:04;;;;;;;22.98;7.85;;;;;;;18.77;70.57;98580.42;2094743;85;21486;-67
2021/07/04 06:59:04;;;;;;;21.33;7.78;;;;;;;18.83;70.53;98586.95;2094706;84;20992;-70
2021/07/04 07:02:05;;;;;;;20.75;8.18;;;;;;;18.65;70.41;98582.98;2094626;85;20993;-70
2021/07/04 07:05:05;;;;;;;19.32;7.92;;;;;;;18.52;71.43;98583.35;2094451;85;21029;-76
2021/07/04 07:08:06;;;;;;;21.48;8.00;;;;;;;18.70;70.84;98587.33;2094875;85;20978;-77
2021/07/04 07:11:06;;;;;;;22.40;8.08;;;;;;;19.06;69.42;98589.17;2094647;85;20980;-72
2021/07/04 07:14:07;;;;;;;21.45;9.23;;;;;;;19.40;68.70;98598.58;2094747;85;20953;-77
2021/07/04 07:17:07;;;;;;;22.32;9.33;;;;;;;19.53;69.00;98596.33;2094744;85;21612;-72
2021/07/04 07:20:08;;;;;;;22.07;9.73;;;;;;;19.87;68.88;98602.73;2094593;85;21445;-73
2021/07/04 07:23:09;;;;;;;23.12;9.78;;;;;;;20.10;65.90;98600.81;2094613;85;21471;-74
2021/07/04 07:26:09;;;;;;;23.90;10.03;;;;;;;20.16;65.89;98605.52;2094519;85;21084;-70
2021/07/04 07:29:10;;;;;;;24.77;11.48;;;;;;;20.06;66.51;98614.95;2094918;85;21016;-77
2021/07/04 07:32:10;;;;;;;24.75;10.72;;;;;;;20.05;67.51;98606.11;2094457;85;21051;-70
2021/07/04 07:35:11;;;;;;;24.90;10.58;;;;;;;20.45;66.90;98603.77;2094405;85;21489;-74
2021/07/04 07:38:12;;;;;;;22.22;9.33;;;;;;;20.76;65.96;98592.05;2095013;85;21013;-73
2021/07/04 07:41:12;;;;;;;23.22;10.85;;;;;;;20.97;66.15;98601.39;2094982;85;21016;-75
2021/07/04 07:44:13;;;;;;;21.95;9.53;;;;;;;21.03;65.18;98603.89;2095167;85;21012;-72
2021/07/04 07:47:13;;;;;;;22.65;10.28;;;;;;;21.33;66.18;98594.89;2094924;85;21004;-73
2021/07/04 07:50:14;;;;;;;22.55;9.70;;;;;;;21.87;64.37;98613.01;2095028;85;21044;-69
2021/07/04 07:53:14;;;;;;;22.03;9.63;;;;;;;22.40;63.24;98598.64;2094947;85;21076;-70
2021/07/04 07:56:15;;;;;;;22.17;9.13;;;;;;;22.73;62.44;98609.11;2094966;85;21570;-62
2021/07/04 07:59:15;;;;;;;22.03;9.20;;;;;;;22.79;61.45;98594.54;2094733;85;21598;-70
2021/07/04 08:02:16;;;;;;;21.97;8.47;;;;;;;22.69;60.31;98593.13;2094840;85;20985;-62
2021/07/04 08:05:16;;;;;;;22.83;9.13;;;;;;;22.60;61.30;98597.69;2094849;85;20981;-62
2021/07/04 08:08:17;;;;;;;22.73;9.20;;;;;;;22.29;62.06;98591.29;2094811;85;21059;-63
2021/07/04 08:11:17;;;;;;;20.33;8.70;;;;;;;22.31;61.72;98604.47;2095190;84;20996;-65
2021/07/04 08:14:17;;;;;;;22.33;9.27;;;;;;;22.34;61.48;98593.98;2095076;84;21028;-62
2021/07/04 08:17:18;;;;;;;21.53;9.40;;;;;;;22.22;62.24;98591.66;2095003;85;21000;-64
2021/07/04 08:20:18;;;;;;;22.33;9.67;;;;;;;22.21;61.44;98583.82;2094944;85;21025;-62
2021/07/04 08:23:19;;;;;;;21.73;9.40;;;;;;;21.89;61.25;98597.13;2094919;85;21024;-71
2021/07/04 08:26:20;;;;;;;20.82;8.40;;;;;;;21.56;62.14;98588.38;2094609;84;21599;-73
2021/07/04 08:29:20;;;;;;;23.47;10.10;;;;;;;21.53;63.64;98592.73;2094797;85;21004;-78
2021/07/04 08:32:20;;;;;;;21.40;8.53;;;;;;;21.62;63.02;98590.36;2094834;84;21001;-74
2021/07/04 08:35:21;;;;;;;21.45;8.73;;;;;;;21.69;62.59;98595.86;2094433;85;20986;-71
2021/07/04 08:38:22;;;;;;;18.92;7.20;;;;;;;21.75;62.49;98589.83;2094660;84;21021;-62
2021/07/04 08:41:22;;;;;;;18.77;6.83;;;;;;;21.83;62.00;98586.32;2094906;85;21005;-62
2021/07/04 08:44:23;;;;;;;19.50;7.03;;;;;;;21.84;61.18;98585.30;2095026;85;20978;-63
2021/07/04 08:47:23;;;;;;;17.30;5.57;;;;;;;21.71;62.45;98584.02;2094994;85;21017;-63
2021/07/04 08:50:23;;;;;;;18.98;6.00;;;;;;;21.71;60.96;98596.54;2095035;85;20958;-64
2021/07/04 08:53:24;;;;;;;17.23;6.42;;;;;;;21.53;61.96;98574.05;2094888;85;21093;-65
2021/07/04 08:56:24;;;;;;;16.03;5.77;;;;;;;22.05;62.37;98574.90;2094762;84;21004;-64
2021/07/04 08:59:25;;;;;;;17.65;6.22;;;;;;;22.83;59.85;98573.64;2094903;85;21476;-62
2021/07/04 09:02:25;;;;;;;16.07;5.70;;;;;;;23.05;60.63;98570.62;2094892;85;21452;-62
2021/07/04 09:05:26;;;;;;;17.00;5.80;;;;;;;23.13;58.74;98577.76;2094883;85;20989;-63
2021/07/04 09:08:26;;;;;;;17.27;5.77;;;;;;;23.04;58.46;98573.47;2094742;85;20993;-62
2021/07/04 09:11:26;;;;;;;14.20;4.97;;;;;;;23.22;58.13;98569.18;2094907;85;20973;-62
2021/07/04 09:14:27;;;;;;;13.50;5.40;;;;;;;23.14;58.18;98563.38;2094858;85;21021;-62
2021/07/04 09:17:28;;;;;;;14.50;5.27;;;;;;;23.40;57.25;98569.65;2094826;85;21040;-62
2021/07/04 09:20:28;;;;;;;14.93;5.20;;;;;;;23.60;56.92;98570.47;2094494;84;21040;-62
2021/07/04 09:23:29;;;;;;;16.17;5.37;;;;;;;23.69;55.84;98558.15;2094863;85;21072;-62
2021/07/04 09:26:29;;;;;;;16.00;5.93;;;;;;;23.57;57.84;98553.44;2107382;84;21047;-62
2021/07/04 09:29:30;;;;;;;17.70;5.73;;;;;;;23.53;57.37;98547.61;2113381;84;21480;-62
2021/07/04 09:32:30;;;;;;;14.17;5.33;;;;;;;23.62;57.30;98549.69;2113446;84;21499;-62
2021/07/04 09:35:31;;;;;;;15.87;5.20;;;;;;;23.48;56.96;98549.50;2113277;84;21064;-62
2021/07/04 09:38:32;;;;;;;14.27;5.43;;;;;;;23.56;57.09;98549.09;2112892;84;20997;-62
2021/07/04 09:41:32;;;;;;;15.00;5.80;;;;;;;23.76;56.50;98546.20;2113285;84;21535;-63
2021/07/04 09:44:33;;;;;;;18.40;5.77;;;;;;;23.73;56.81;98545.73;2113244;84;21035;-62
2021/07/04 09:47:33;;;;;;;16.83;5.73;;;;;;;23.60;55.99;98539.68;2113369;84;21035;-62
2021/07/04 09:50:33;;;;;;;18.40;6.13;;;;;;;23.55;56.97;98536.72;2113477;84;20992;-63
2021/07/04 09:53:34;;;;;;;16.60;5.70;;;;;;;23.66;56.06;98541.61;2113725;84;20977;-63
2021/07/04 09:56:35;;;;;;;15.70;5.23;;;;;;;23.60;56.31;98533.81;2113411;84;21091;-62
2021/07/04 09:59:36;;;;;;;16.05;4.90;;;;;;;23.69;56.71;98536.73;2113460;84;21020;-62
2021/07/04 10:02:36;;;;;;;13.90;5.07;;;;;;;23.98;55.93;98528.38;2113607;84;21019;-62
2021/07/04 10:05:37;;;;;;;15.97;5.47;;;;;;;24.44;55.70;98521.04;2113574;84;21531;-62
2021/07/04 10:08:37;;;;;;;13.10;5.00;;;;;;;24.76;54.08;98518.41;2113442;84;21503;-63
2021/07/04 10:11:38;;;;;;;14.70;5.27;;;;;;;25.15;53.77;98514.38;2113454;84;20989;-62
2021/07/04 10:14:38;;;;;;;17.03;5.60;;;;;;;25.42;52.50;98521.31;2113392;84;21036;-63
2021/07/04 10:17:38;;;;;;;13.07;4.73;;;;;;;25.57;51.77;98516.66;2113538;84;21012;-62
2021/07/04 10:20:39;;;;;;;12.90;4.60;;;;;;;26.14;51.89;98511.67;2113714;84;20984;-62
2021/07/04 10:23:39;;;;;;;14.47;4.80;;;;;;;26.92;49.92;98506.66;2113703;84;20988;-76
2021/07/04 10:26:40;;;;;;;15.67;5.33;;;;;;;27.23;50.03;98501.14;2113162;84;21071;-65
2021/07/04 10:29:41;;;;;;;11.37;4.67;;;;;;;27.23;47.18;98493.06;2113426;84;21036;-63
2021/07/04 10:32:47;;;;;;;12.57;4.50;;;;;;;26.55;48.53;98496.77;2113595;84;21009;-63
2021/07/04 10:35:44;;;;;;;12.33;4.70;;;;;;;25.99;48.49;98484.41;2108828;84;20989;-62
2021/07/04 10:38:44;;;;;;;14.30;4.80;;;;;;;25.68;50.60;98485.72;2113607;84;20997;-64
2021/07/04 10:41:44;;;;;;;14.73;5.20;;;;;;;26.42;50.86;98478.77;2113569;84;21017;-63
2021/07/04 10:44:45;;;;;;;14.63;4.90;;;;;;;27.01;47.03;98468.76;2113512;84;21004;-75
2021/07/04 10:47:45;;;;;;;14.00;4.93;;;;;;;27.14;48.42;98469.58;2113598;84;21000;-68
2021/07/04 10:50:46;;;;;;;15.37;5.10;;;;;;;26.84;47.42;98474.58;2113639;84;21056;-69
2021/07/04 10:53:46;;;;;;;17.43;5.30;;;;;;;26.77;47.68;98469.19;2113644;84;21033;-74
2021/07/04 10:56:47;;;;;;;16.27;5.30;;;;;;;26.82;47.04;98471.25;2113729;84;21020;-69
2021/07/04 10:59:47;;;;;;;14.37;5.10;;;;;;;26.40;46.60;98467.89;2113588;84;21000;-65
2021/07/04 11:02:50;;;;;;;13.87;4.77;;;;;;;25.66;47.73;98469.48;2113524;84;21507;-71
2021/07/04 11:05:50;;;;;;;11.45;4.55;;;;;;;25.19;48.61;98458.48;2108759;84;21068;-65
2021/07/04 11:08:50;;;;;;;14.77;5.10;;;;;;;25.04;50.40;98460.77;2113418;84;21107;-68
2021/07/04 11:11:51;;;;;;;16.80;5.10;;;;;;;25.05;48.52;98454.88;2113394;84;20993;-69
2021/07/04 11:14:51;;;;;;;14.33;5.03;;;;;;;25.63;50.33;98449.75;2113523;84;21578;-63
2021/07/04 11:17:52;;;;;;;12.43;4.47;;;;;;;26.20;49.09;98453.08;2113332;84;21032;-63
2021/07/04 11:20:52;;;;;;;12.93;4.30;;;;;;;26.50;46.25;98445.46;2113534;84;21507;-75
2021/07/04 11:23:53;;;;;;;14.03;4.63;;;;;;;26.44;46.61;98454.36;2113500;84;21032;-74
2021/07/04 11:26:53;;;;;;;11.97;4.27;;;;;;;26.21;46.89;98456.90;2113225;84;21024;-76
2021/07/04 11:29:53;;;;;;;11.50;4.37;;;;;;;25.86;45.78;98451.62;2113379;84;21048;-70
2021/07/04 11:32:54;;;;;;;11.77;4.37;;;;;;;25.55;46.41;98443.52;2113736;84;20972;-74
2021/07/04 11:35:54;;;;;;;12.80;4.60;;;;;;;25.37;46.89;98449.44;2113322;84;21031;-70
2021/07/04 11:38:55;;;;;;;12.73;4.57;;;;;;;25.76;47.21;98432.38;2113139;84;21040;-75
2021/07/04 11:41:55;;;;;;;12.00;4.53;;;;;;;26.01;46.05;98438.57;2113352;84;20989;-76
2021/07/04 11:44:56;;;;;;;13.53;4.80;;;;;;;26.48;47.30;98433.25;2113518;84;21471;-73
2021/07/04 11:47:56;;;;;;;13.83;4.93;;;;;;;26.77;46.94;98442.81;2113481;84;20961;-76
2021/07/04 11:50:56;;;;;;;15.27;4.90;;;;;;;26.50;46.15;98435.23;2113492;84;21032;-74
2021/07/04 11:53:57;;;;;;;14.50;4.83;;;;;;;26.17;47.43;98436.83;2113370;84;21000;-75
2021/07/04 12:00:01;;;;;;;15.10;4.60;;;;;;;25.79;48.44;98435.99;2108600;84;21503;-76
2021/07/04 12:03:02;;;;;;;;;;;;;;;25.64;47.93;98436.65;2115788;84;21100;-69
2021/07/04 12:06:02;;;;;;;16.00;5.00;;;;;;;25.54;48.41;98439.20;2113403;84;20138;-76
2021/07/04 12:09:02;;;;;;;12.70;4.40;;;;;;;25.48;48.73;98435.95;2113399;84;21527;-78
2021/07/04 12:12:03;;;;;;;13.60;4.63;;;;;;;25.55;47.71;98430.63;2113422;84;20945;-76
2021/07/04 12:15:05;;;;;;;13.60;4.83;;;;;;;25.32;47.11;98432.27;2113343;84;20940;-77
2021/07/04 12:18:05;;;;;;;;;;;;;;;25.15;48.42;98436.57;2115836;84;21020;-77
2021/07/04 12:21:06;;;;;;;14.43;4.95;;;;;;;25.11;49.00;98428.59;2113202;84;20110;-76
2021/07/04 12:24:06;;;;;;;15.80;5.20;;;;;;;25.10;48.36;98423.43;2113407;84;21571;-76
2021/07/04 12:27:07;;;;;;;12.43;4.70;;;;;;;25.17;48.62;98427.83;2101009;84;21468;-66
2021/07/04 12:30:07;;;;;;;15.30;4.90;;;;;;;25.34;48.73;98422.16;2094915;85;20962;-64
2021/07/04 12:33:08;;;;;;;16.23;4.90;;;;;;;25.42;48.16;98415.28;2094729;84;21080;-63
2021/07/04 12:36:10;;;;;;;13.93;4.93;;;;;;;25.57;48.82;98413.30;2094891;85;21053;-63
2021/07/04 12:39:11;;;;;;;16.48;5.33;;;;;;;25.73;48.16;98411.27;2096505;85;21033;-63
2021/07/04 12:42:11;;;;;;;16.43;4.87;;;;;;;26.38;47.32;98402.23;2094788;85;20988;-65
2021/07/04 12:45:12;;;;;;;12.47;4.63;;;;;;;27.10;46.66;98397.55;2094752;85;21060;-70
2021/07/04 12:48:12;;;;;;;12.67;4.87;;;;;;;27.30;45.64;98390.23;2095108;85;20993;-63
2021/07/04 12:51:13;;;;;;;11.53;4.70;;;;;;;27.36;44.63;98391.80;2094989;85;21044;-74
2021/07/04 12:54:14;;;;;;;14.33;4.80;;;;;;;27.59;44.53;98390.77;2094902;85;21008;-76
2021/07/04 12:57:14;;;;;;;12.87;4.73;;;;;;;28.25;43.00;98387.94;2094833;85;21008;-69
2021/07/04 13:00:15;;;;;;;11.23;4.70;;;;;;;28.35;42.37;98390.42;2094665;84;21547;-76
2021/07/04 13:03:17;;;;;;;11.05;4.78;;;;;;;28.09;43.11;98387.41;2094265;85;21145;-76
2021/07/04 13:06:18;;;;;;;14.63;4.97;;;;;;;28.06;43.75;98382.96;2094614;85;21013;-77
2021/07/04 13:09:18;;;;;;;14.60;5.20;;;;;;;28.23;43.46;98380.56;2094745;85;21068;-77
2021/07/04 13:12:19;;;;;;;16.23;5.60;;;;;;;28.13;40.71;98374.30;2094910;84;21020;-72
2021/07/04 13:15:20;;;;;;;17.12;5.33;;;;;;;27.96;40.92;98375.34;2094789;85;21069;-75
2021/07/04 13:18:20;;;;;;;15.17;5.87;;;;;;;28.24;42.36;98369.56;2094962;85;21020;-64
2021/07/04 13:21:21;;;;;;;15.00;5.23;;;;;;;28.27;41.22;98370.47;2094886;85;21012;-64
2021/07/04 13:24:21;;;;;;;12.90;4.87;;;;;;;28.45;41.74;98371.06;2094785;84;20993;-77
2021/07/04 13:27:22;;;;;;;13.23;4.60;;;;;;;28.75;39.95;98372.27;2094629;85;21013;-74
2021/07/04 13:30:22;;;;;;;12.87;4.50;;;;;;;28.86;39.86;98368.84;2094744;85;21471;-77
2021/07/04 13:33:22;;;;;;;13.17;4.80;;;;;;;29.07;38.98;98374.33;2094747;84;21005;-76
2021/07/04 13:36:23;;;;;;;14.87;4.97;;;;;;;29.31;39.64;98371.29;2094702;85;21048;-74
2021/07/04 13:39:23;;;;;;;11.87;4.60;;;;;;;29.10;39.12;98369.02;2094729;85;21004;-75
2021/07/04 13:42:24;;;;;;;16.27;4.70;;;;;;;29.47;38.37;98362.27;2094862;84;20985;-76
2021/07/04 13:45:24;;;;;;;16.70;5.13;;;;;;;29.55;38.55;98355.19;2094981;85;21017;-76
2021/07/04 13:48:26;;;;;;;12.97;4.80;;;;;;;29.35;37.99;98353.59;2094842;85;21061;-72
2021/07/04 13:51:26;;;;;;;;;;;;;;;29.68;37.72;98350.13;2097116;85;21078;-75
2021/07/04 13:54:27;;;;;;;11.97;4.63;;;;;;;29.26;37.65;98354.92;2094908;85;20411;-64
2021/07/04 13:57:30;;;;;;;11.50;4.53;;;;;;;29.45;36.79;98350.34;2094738;85;21068;-65
2021/07/04 14:00:29;;;;;;;14.53;4.47;;;;;;;29.99;37.02;98341.52;2096805;85;20985;-68
2021/07/04 14:03:41;;;;;;;;;;;;;;;;;;;;;